createdAt,value
2018-06-30T00:00:24.466Z,19.34
2018-06-30T00:01:23.839Z,19.34
2018-06-30T00:02:23.896Z,19.32
2018-06-30T00:03:44.913Z,19.37
2018-06-30T00:04:23.936Z,19.34
2018-06-30T00:05:23.957Z,19.32
2018-06-30T00:06:23.988Z,19.32
2018-06-30T00:07:24.030Z,19.35
2018-06-30T00:08:24.041Z,19.27
2018-06-30T00:09:45.113Z,19.27
2018-06-30T00:10:24.158Z,19.41
2018-06-30T00:11:24.197Z,19.41
2018-06-30T00:12:24.147Z,19.27
2018-06-30T00:13:24.190Z,19.29
2018-06-30T00:14:24.217Z,19.27
2018-06-30T00:15:45.255Z,19.26
2018-06-30T00:16:24.274Z,19.19
2018-06-30T00:17:24.305Z,19.16
2018-06-30T00:18:24.337Z,19.16
2018-06-30T00:19:24.361Z,19.15
2018-06-30T00:20:24.395Z,19.23
2018-06-30T00:21:45.441Z,19.08
2018-06-30T00:22:24.449Z,19.12
2018-06-30T00:23:24.468Z,19.07
2018-06-30T00:24:24.504Z,19.11
2018-06-30T00:25:24.536Z,19.07
2018-06-30T00:26:24.570Z,19.09
2018-06-30T00:27:45.616Z,19.00
2018-06-30T00:28:24.634Z,19.01
2018-06-30T00:29:24.645Z,19.08
2018-06-30T00:30:24.674Z,19.08
2018-06-30T00:31:24.689Z,19.01
2018-06-30T00:32:25.037Z,19.16
2018-06-30T00:33:45.843Z,19.05
2018-06-30T00:34:24.792Z,19.07
2018-06-30T00:35:25.208Z,19.00
2018-06-30T00:36:24.864Z,18.98
2018-06-30T00:37:24.878Z,19.01
2018-06-30T00:38:25.178Z,18.94
2018-06-30T00:39:46.084Z,18.79
2018-06-30T00:40:25.250Z,18.70
2018-06-30T00:41:25.261Z,18.79
2018-06-30T00:42:25.013Z,18.78
2018-06-30T00:43:25.320Z,18.79
2018-06-30T00:44:25.079Z,18.81
2018-06-30T00:45:46.124Z,18.83
2018-06-30T00:46:26.096Z,18.83
2018-06-30T00:47:25.171Z,18.78
2018-06-30T00:48:25.808Z,18.81
2018-06-30T00:49:25.220Z,18.81
2018-06-30T00:50:25.251Z,18.70
2018-06-30T00:51:46.303Z,18.66
2018-06-30T00:52:25.320Z,18.64
2018-06-30T00:53:25.341Z,18.70
2018-06-30T00:54:25.364Z,18.68
2018-06-30T00:55:25.384Z,18.68
2018-06-30T00:56:25.413Z,18.64
2018-06-30T00:57:46.471Z,18.64
2018-06-30T00:58:25.478Z,18.73
2018-06-30T00:59:25.525Z,18.70
2018-06-30T01:00:25.553Z,18.64
2018-06-30T01:01:25.557Z,18.74
2018-06-30T01:02:25.596Z,18.74
2018-06-30T01:03:46.631Z,18.81
2018-06-30T01:04:25.679Z,18.67
2018-06-30T01:05:25.740Z,18.67
2018-06-30T01:06:25.698Z,18.60
2018-06-30T01:07:25.727Z,18.57
2018-06-30T01:08:25.763Z,18.60
2018-06-30T01:09:46.805Z,18.60
2018-06-30T01:10:25.817Z,18.60
2018-06-30T01:11:26.489Z,18.61
2018-06-30T01:12:25.869Z,18.63
2018-06-30T01:13:25.921Z,18.66
2018-06-30T01:14:25.930Z,18.60
2018-06-30T01:15:46.980Z,18.52
2018-06-30T01:16:26.000Z,18.53
2018-06-30T01:17:26.016Z,18.48
2018-06-30T01:18:26.050Z,18.49
2018-06-30T01:19:26.125Z,18.42
2018-06-30T01:20:26.099Z,18.37
2018-06-30T01:21:47.158Z,18.36
2018-06-30T01:22:26.169Z,18.37
2018-06-30T01:23:26.187Z,18.46
2018-06-30T01:24:26.251Z,18.46
2018-06-30T01:25:26.237Z,18.49
2018-06-30T01:26:26.274Z,18.45
2018-06-30T01:27:47.313Z,18.42
2018-06-30T01:28:26.325Z,18.43
2018-06-30T01:29:26.361Z,18.48
2018-06-30T01:30:26.392Z,18.42
2018-06-30T01:31:26.417Z,18.42
2018-06-30T01:32:26.447Z,18.34
2018-06-30T01:33:47.495Z,18.34
2018-06-30T01:34:26.494Z,18.31
2018-06-30T01:35:26.540Z,18.33
2018-06-30T01:36:26.551Z,18.28
2018-06-30T01:37:26.587Z,18.28
2018-06-30T01:38:26.613Z,18.27
2018-06-30T01:39:47.666Z,18.28
2018-06-30T01:40:26.673Z,18.31
2018-06-30T01:41:26.693Z,18.19
2018-06-30T01:42:26.733Z,18.18
2018-06-30T01:43:26.767Z,18.26
2018-06-30T01:44:26.781Z,18.26
2018-06-30T01:45:47.843Z,18.21
2018-06-30T01:46:26.837Z,18.13
2018-06-30T01:47:26.866Z,18.13
2018-06-30T01:48:26.903Z,18.19
2018-06-30T01:49:26.926Z,17.95
2018-06-30T01:50:26.961Z,17.95
2018-06-30T01:51:47.996Z,17.91
2018-06-30T01:52:27.010Z,17.97
2018-06-30T01:53:27.056Z,18.00
2018-06-30T01:54:27.061Z,17.95
2018-06-30T01:55:27.096Z,18.08
2018-06-30T01:56:27.127Z,18.03
2018-06-30T01:57:48.175Z,17.94
2018-06-30T01:58:27.180Z,17.90
2018-06-30T01:59:27.219Z,18.02
2018-06-30T02:00:27.238Z,17.90
2018-06-30T02:01:27.276Z,17.91
2018-06-30T02:02:27.289Z,18.02
2018-06-30T02:03:48.351Z,18.05
2018-06-30T02:04:27.381Z,17.95
2018-06-30T02:05:27.384Z,17.94
2018-06-30T02:06:27.446Z,18.05
2018-06-30T02:07:27.448Z,17.97
2018-06-30T02:08:27.456Z,17.97
2018-06-30T02:09:48.511Z,17.95
2018-06-30T02:10:27.517Z,17.86
2018-06-30T02:11:27.550Z,18.02
2018-06-30T02:12:27.579Z,17.94
2018-06-30T02:13:27.626Z,17.93
2018-06-30T02:14:27.634Z,17.82
2018-06-30T02:15:48.675Z,17.79
2018-06-30T02:16:27.690Z,17.90
2018-06-30T02:17:27.713Z,17.84
2018-06-30T02:18:27.770Z,17.82
2018-06-30T02:19:27.780Z,17.71
2018-06-30T02:20:27.800Z,17.79
2018-06-30T02:21:48.850Z,17.71
2018-06-30T02:22:27.862Z,17.75
2018-06-30T02:23:27.889Z,17.82
2018-06-30T02:24:28.518Z,17.78
2018-06-30T02:25:27.946Z,17.90
2018-06-30T02:26:27.983Z,17.82
2018-06-30T02:27:49.030Z,17.82
2018-06-30T02:28:28.050Z,17.82
2018-06-30T02:29:28.061Z,17.82
2018-06-30T02:30:28.087Z,17.72
2018-06-30T02:31:28.106Z,17.76
2018-06-30T02:32:28.147Z,17.79
2018-06-30T02:33:49.183Z,17.79
2018-06-30T02:34:28.198Z,17.82
2018-06-30T02:35:28.251Z,17.82
2018-06-30T02:36:28.248Z,17.80
2018-06-30T02:37:28.285Z,17.95
2018-06-30T02:38:28.322Z,17.87
2018-06-30T02:39:49.364Z,17.84
2018-06-30T02:40:28.370Z,17.72
2018-06-30T02:41:28.397Z,17.72
2018-06-30T02:42:28.421Z,17.73
2018-06-30T02:43:28.482Z,17.75
2018-06-30T02:44:28.490Z,17.66
2018-06-30T02:45:49.581Z,17.69
2018-06-30T02:48:10.613Z,17.42
2018-06-30T02:49:10.497Z,17.49
2018-06-30T02:50:10.695Z,17.47
2018-06-30T02:51:10.545Z,17.50
2018-06-30T02:52:31.593Z,17.42
2018-06-30T02:53:10.929Z,17.27
2018-06-30T02:54:10.621Z,17.46
2018-06-30T02:55:11.602Z,17.38
2018-06-30T02:56:11.140Z,17.44
2018-06-30T02:57:10.716Z,17.39
2018-06-30T02:58:31.757Z,17.47
2018-06-30T02:59:10.764Z,17.39
2018-06-30T03:00:10.794Z,17.47
2018-06-30T03:01:11.302Z,17.38
2018-06-30T03:02:10.856Z,17.39
2018-06-30T03:03:11.686Z,17.50
2018-06-30T03:04:31.965Z,17.39
2018-06-30T03:05:10.936Z,17.27
2018-06-30T03:06:11.149Z,17.35
2018-06-30T03:07:10.993Z,17.42
2018-06-30T03:08:11.018Z,17.31
2018-06-30T03:09:11.411Z,17.38
2018-06-30T03:10:32.100Z,17.44
2018-06-30T03:11:11.171Z,17.37
2018-06-30T03:12:11.437Z,17.34
2018-06-30T03:13:11.166Z,17.31
2018-06-30T03:14:11.659Z,17.34
2018-06-30T03:15:11.218Z,17.24
2018-06-30T03:16:32.275Z,17.31
2018-06-30T03:17:11.811Z,17.32
2018-06-30T03:18:11.307Z,17.30
2018-06-30T03:19:11.503Z,17.34
2018-06-30T03:20:11.498Z,17.34
2018-06-30T03:21:11.378Z,17.32
2018-06-30T03:22:32.430Z,17.42
2018-06-30T03:23:11.589Z,17.35
2018-06-30T03:24:11.514Z,17.34
2018-06-30T03:25:11.497Z,17.38
2018-06-30T03:26:11.530Z,17.39
2018-06-30T03:27:11.575Z,17.38
2018-06-30T03:28:32.598Z,17.39
2018-06-30T03:29:11.625Z,17.38
2018-06-30T03:30:11.633Z,17.38
2018-06-30T03:31:11.667Z,17.32
2018-06-30T03:32:11.686Z,17.22
2018-06-30T03:33:11.718Z,17.35
2018-06-30T03:34:32.760Z,17.34
2018-06-30T03:35:11.767Z,17.27
2018-06-30T03:36:11.814Z,17.30
2018-06-30T03:37:11.826Z,17.34
2018-06-30T03:38:12.534Z,17.32
2018-06-30T03:39:11.899Z,17.39
2018-06-30T03:40:32.927Z,17.35
2018-06-30T03:41:11.952Z,17.34
2018-06-30T03:42:11.987Z,17.38
2018-06-30T03:43:12.011Z,17.31
2018-06-30T03:44:12.020Z,17.37
2018-06-30T03:45:12.042Z,17.28
2018-06-30T03:46:33.104Z,17.31
2018-06-30T03:47:12.112Z,17.27
2018-06-30T03:48:12.136Z,17.34
2018-06-30T03:49:12.232Z,17.41
2018-06-30T03:50:12.188Z,17.47
2018-06-30T03:51:12.269Z,17.41
2018-06-30T03:52:33.270Z,17.38
2018-06-30T03:53:12.281Z,17.39
2018-06-30T03:54:13.137Z,17.38
2018-06-30T03:55:12.334Z,17.41
2018-06-30T03:56:12.359Z,17.41
2018-06-30T03:57:12.700Z,17.41
2018-06-30T03:58:33.431Z,17.41
2018-06-30T03:59:12.590Z,17.57
2018-06-30T04:00:12.470Z,17.60
2018-06-30T04:01:12.496Z,17.60
2018-06-30T04:02:12.638Z,17.63
2018-06-30T04:03:12.556Z,17.68
2018-06-30T04:04:33.594Z,17.66
2018-06-30T04:05:12.712Z,17.66
2018-06-30T04:06:12.638Z,17.69
2018-06-30T04:07:12.671Z,17.68
2018-06-30T04:08:12.690Z,17.71
2018-06-30T04:09:12.732Z,17.66
2018-06-30T04:10:33.824Z,17.65
2018-06-30T04:11:12.837Z,17.73
2018-06-30T04:12:12.810Z,17.65
2018-06-30T04:13:12.837Z,17.60
2018-06-30T04:14:12.862Z,17.50
2018-06-30T04:15:12.903Z,17.65
2018-06-30T04:16:33.932Z,17.63
2018-06-30T04:17:12.951Z,17.69
2018-06-30T04:18:13.006Z,17.73
2018-06-30T04:19:13.010Z,17.76
2018-06-30T04:20:13.036Z,17.86
2018-06-30T04:21:13.063Z,17.82
2018-06-30T04:22:34.107Z,17.76
2018-06-30T04:23:13.132Z,17.65
2018-06-30T04:24:13.143Z,17.72
2018-06-30T04:25:13.172Z,17.72
2018-06-30T04:26:13.196Z,17.86
2018-06-30T04:27:13.226Z,17.86
2018-06-30T04:28:34.268Z,17.94
2018-06-30T04:29:13.279Z,18.06
2018-06-30T04:30:13.308Z,18.03
2018-06-30T04:31:13.413Z,18.03
2018-06-30T04:32:13.362Z,17.97
2018-06-30T04:33:13.404Z,17.93
2018-06-30T04:34:34.444Z,17.98
2018-06-30T04:35:13.447Z,17.98
2018-06-30T04:36:13.470Z,17.98
2018-06-30T04:37:13.504Z,18.02
2018-06-30T04:38:13.530Z,18.11
2018-06-30T04:39:13.566Z,18.15
2018-06-30T04:40:34.614Z,18.08
2018-06-30T04:41:13.623Z,18.30
2018-06-30T04:42:13.711Z,18.27
2018-06-30T04:43:13.674Z,18.28
2018-06-30T04:44:13.732Z,18.21
2018-06-30T04:45:13.790Z,18.26
2018-06-30T04:46:34.777Z,18.24
2018-06-30T04:47:13.783Z,18.28
2018-06-30T04:48:13.812Z,18.27
2018-06-30T04:49:13.842Z,18.37
2018-06-30T04:50:13.872Z,18.48
2018-06-30T04:51:14.528Z,18.43
2018-06-30T04:52:34.943Z,18.31
2018-06-30T04:53:13.978Z,18.39
2018-06-30T04:54:13.991Z,18.26
2018-06-30T04:55:14.014Z,18.36
2018-06-30T04:56:14.043Z,18.30
2018-06-30T04:57:14.062Z,18.30
2018-06-30T04:58:35.117Z,18.28
2018-06-30T04:59:14.113Z,18.26
2018-06-30T05:00:14.146Z,18.26
2018-06-30T05:01:14.179Z,18.30
2018-06-30T05:02:14.223Z,18.36
2018-06-30T05:03:14.231Z,18.46
2018-06-30T05:04:35.280Z,18.53
2018-06-30T05:05:14.295Z,18.55
2018-06-30T05:06:14.323Z,18.46
2018-06-30T05:07:14.355Z,18.57
2018-06-30T05:08:14.619Z,18.67
2018-06-30T05:09:14.398Z,18.61
2018-06-30T05:10:35.505Z,18.63
2018-06-30T05:11:14.464Z,18.61
2018-06-30T05:12:14.484Z,18.61
2018-06-30T05:13:14.520Z,18.73
2018-06-30T05:14:14.544Z,18.71
2018-06-30T05:15:14.571Z,18.61
2018-06-30T05:16:35.625Z,18.58
2018-06-30T05:17:14.639Z,18.61
2018-06-30T05:18:14.717Z,18.60
2018-06-30T05:19:14.692Z,18.67
2018-06-30T05:20:14.709Z,18.63
2018-06-30T05:21:14.737Z,18.78
2018-06-30T05:22:35.877Z,18.63
2018-06-30T05:23:14.803Z,18.68
2018-06-30T05:24:14.840Z,18.66
2018-06-30T05:25:14.872Z,18.63
2018-06-30T05:26:14.882Z,18.78
2018-06-30T05:27:14.914Z,18.60
2018-06-30T05:28:35.953Z,18.61
2018-06-30T05:29:14.973Z,18.48
2018-06-30T05:30:15.006Z,18.48
2018-06-30T05:31:15.019Z,18.46
2018-06-30T05:32:15.049Z,18.46
2018-06-30T05:33:15.150Z,18.45
2018-06-30T05:34:36.128Z,18.52
2018-06-30T05:35:15.147Z,18.57
2018-06-30T05:36:15.178Z,18.48
2018-06-30T05:37:15.220Z,18.51
2018-06-30T05:38:15.225Z,18.45
2018-06-30T05:39:15.263Z,18.58
2018-06-30T05:40:36.302Z,18.63
2018-06-30T05:41:15.364Z,18.61
2018-06-30T05:42:15.386Z,18.53
2018-06-30T05:43:15.369Z,18.64
2018-06-30T05:44:15.475Z,18.49
2018-06-30T05:45:15.416Z,18.41
2018-06-30T05:46:36.475Z,18.48
2018-06-30T05:47:15.484Z,18.45
2018-06-30T05:48:15.510Z,18.45
2018-06-30T05:49:15.548Z,18.58
2018-06-30T05:50:15.590Z,18.55
2018-06-30T05:51:15.595Z,18.53
2018-06-30T05:52:36.631Z,18.52
2018-06-30T05:53:16.633Z,18.45
2018-06-30T05:54:15.858Z,18.43
2018-06-30T05:55:15.802Z,18.46
2018-06-30T05:56:15.725Z,18.57
2018-06-30T05:57:15.767Z,18.64
2018-06-30T05:58:36.823Z,18.60
2018-06-30T05:59:15.840Z,18.73
2018-06-30T06:00:15.846Z,18.79
2018-06-30T06:01:15.885Z,18.92
2018-06-30T06:02:15.912Z,18.89
2018-06-30T06:03:15.936Z,18.89
2018-06-30T06:04:36.975Z,18.82
2018-06-30T06:05:15.986Z,18.74
2018-06-30T06:06:16.091Z,18.71
2018-06-30T06:07:16.044Z,18.70
2018-06-30T06:08:16.078Z,18.67
2018-06-30T06:09:16.106Z,18.81
2018-06-30T06:10:37.148Z,19.00
2018-06-30T06:11:16.180Z,18.97
2018-06-30T06:12:16.195Z,19.11
2018-06-30T06:13:16.228Z,19.16
2018-06-30T06:14:16.246Z,19.09
2018-06-30T06:15:16.363Z,19.12
2018-06-30T06:16:37.313Z,19.05
2018-06-30T06:17:16.345Z,19.04
2018-06-30T06:18:16.354Z,19.15
2018-06-30T06:19:16.384Z,19.11
2018-06-30T06:20:16.431Z,19.05
2018-06-30T06:21:16.504Z,19.00
2018-06-30T06:22:37.496Z,19.04
2018-06-30T06:23:16.508Z,19.17
2018-06-30T06:24:16.528Z,19.12
2018-06-30T06:25:16.554Z,19.11
2018-06-30T06:26:16.579Z,19.12
2018-06-30T06:27:16.604Z,19.22
2018-06-30T06:28:37.657Z,19.23
2018-06-30T06:29:16.659Z,19.16
2018-06-30T06:30:16.879Z,19.20
2018-06-30T06:31:16.779Z,19.24
2018-06-30T06:32:16.762Z,19.26
2018-06-30T06:33:16.785Z,19.07
2018-06-30T06:34:38.102Z,19.11
2018-06-30T06:35:16.841Z,19.09
2018-06-30T06:36:17.092Z,19.19
2018-06-30T06:37:16.897Z,19.27
2018-06-30T06:38:16.927Z,19.29
2018-06-30T06:39:17.440Z,19.42
2018-06-30T06:40:38.228Z,19.42
2018-06-30T06:41:17.013Z,19.41
2018-06-30T06:42:17.782Z,19.44
2018-06-30T06:43:17.064Z,19.39
2018-06-30T06:44:17.434Z,19.44
2018-06-30T06:45:17.120Z,19.34
2018-06-30T06:46:38.173Z,19.24
2018-06-30T06:47:17.165Z,19.17
2018-06-30T06:48:17.195Z,19.15
2018-06-30T06:49:17.242Z,18.92
2018-06-30T06:50:17.382Z,18.79
2018-06-30T06:51:17.302Z,18.89
2018-06-30T06:52:38.351Z,19.09
2018-06-30T06:53:17.354Z,19.22
2018-06-30T06:54:17.376Z,19.09
2018-06-30T06:55:18.127Z,19.09
2018-06-30T06:56:17.463Z,19.20
2018-06-30T06:57:17.512Z,19.24
2018-06-30T06:58:38.570Z,19.26
2018-06-30T06:59:17.522Z,19.20
2018-06-30T07:00:17.691Z,19.22
2018-06-30T07:01:17.580Z,19.15
2018-06-30T07:02:17.604Z,19.23
2018-06-30T07:03:17.697Z,19.23
2018-06-30T07:04:38.989Z,19.32
2018-06-30T07:05:17.703Z,19.38
2018-06-30T07:06:17.889Z,19.37
2018-06-30T07:07:17.756Z,19.41
2018-06-30T07:08:18.328Z,19.35
2018-06-30T07:09:17.803Z,19.32
2018-06-30T07:10:38.857Z,19.23
2018-06-30T07:11:17.879Z,19.37
2018-06-30T07:12:17.884Z,19.23
2018-06-30T07:13:17.924Z,19.37
2018-06-30T07:14:17.937Z,19.26
2018-06-30T07:15:17.982Z,19.32
2018-06-30T07:16:39.020Z,19.37
2018-06-30T07:17:18.053Z,19.38
2018-06-30T07:18:18.054Z,19.42
2018-06-30T07:19:18.156Z,19.32
2018-06-30T07:20:18.130Z,19.52
2018-06-30T07:21:18.144Z,19.45
2018-06-30T07:22:39.197Z,19.48
2018-06-30T07:23:18.201Z,19.55
2018-06-30T07:24:18.234Z,19.57
2018-06-30T07:25:18.293Z,19.66
2018-06-30T07:26:18.295Z,19.78
2018-06-30T07:27:18.344Z,19.84
2018-06-30T07:28:39.369Z,19.85
2018-06-30T07:29:18.372Z,19.85
2018-06-30T07:30:18.462Z,19.94
2018-06-30T07:31:18.434Z,19.89
2018-06-30T07:32:18.459Z,19.92
2018-06-30T07:33:18.489Z,19.81
2018-06-30T07:34:39.799Z,19.79
2018-06-30T07:35:18.560Z,19.90
2018-06-30T07:36:18.581Z,19.96
2018-06-30T07:37:18.644Z,19.94
2018-06-30T07:38:18.631Z,19.85
2018-06-30T07:39:18.665Z,19.92
2018-06-30T07:40:39.716Z,19.93
2018-06-30T07:41:18.721Z,19.87
2018-06-30T07:42:18.743Z,20.08
2018-06-30T07:43:18.781Z,19.94
2018-06-30T07:44:18.814Z,20.17
2018-06-30T07:45:18.846Z,20.27
2018-06-30T07:46:39.887Z,20.26
2018-06-30T07:47:18.881Z,20.24
2018-06-30T07:48:18.935Z,20.29
2018-06-30T07:49:18.957Z,20.17
2018-06-30T07:50:19.023Z,20.27
2018-06-30T07:51:19.014Z,20.29
2018-06-30T07:52:40.049Z,20.19
2018-06-30T07:53:19.060Z,20.18
2018-06-30T07:54:19.117Z,20.17
2018-06-30T07:55:19.125Z,20.37
2018-06-30T07:56:19.151Z,20.29
2018-06-30T07:57:19.184Z,20.33
2018-06-30T07:58:40.329Z,20.42
2018-06-30T07:59:19.242Z,20.46
2018-06-30T08:00:19.264Z,20.60
2018-06-30T08:01:19.290Z,20.59
2018-06-30T08:02:19.307Z,20.71
2018-06-30T08:03:19.334Z,20.68
2018-06-30T08:04:40.402Z,20.60
2018-06-30T08:05:19.406Z,20.68
2018-06-30T08:06:19.446Z,20.80
2018-06-30T08:07:19.526Z,20.83
2018-06-30T08:08:19.592Z,20.78
2018-06-30T08:09:19.522Z,20.70
2018-06-30T08:10:40.783Z,20.75
2018-06-30T08:11:19.579Z,20.71
2018-06-30T08:12:19.601Z,20.89
2018-06-30T08:13:19.629Z,20.88
2018-06-30T08:14:19.656Z,21.01
2018-06-30T08:15:19.706Z,21.05
2018-06-30T08:16:40.743Z,21.13
2018-06-30T08:17:19.782Z,21.17
2018-06-30T08:18:19.768Z,21.22
2018-06-30T08:19:19.829Z,21.43
2018-06-30T08:20:19.834Z,21.28
2018-06-30T08:21:19.879Z,21.20
2018-06-30T08:22:40.916Z,21.38
2018-06-30T08:23:19.935Z,21.53
2018-06-30T08:24:19.956Z,21.65
2018-06-30T08:25:20.011Z,21.37
2018-06-30T08:26:20.100Z,21.10
2018-06-30T08:27:20.064Z,21.10
2018-06-30T08:28:41.086Z,21.38
2018-06-30T08:29:20.093Z,21.72
2018-06-30T08:30:20.134Z,21.80
2018-06-30T08:31:20.193Z,21.94
2018-06-30T08:32:20.185Z,21.88
2018-06-30T08:33:20.201Z,22.03
2018-06-30T08:34:41.254Z,22.08
2018-06-30T08:35:20.267Z,21.83
2018-06-30T08:36:20.359Z,21.83
2018-06-30T08:37:20.339Z,21.96
2018-06-30T08:38:20.355Z,21.91
2018-06-30T08:39:20.379Z,21.85
2018-06-30T08:40:41.425Z,21.62
2018-06-30T08:41:20.443Z,21.38
2018-06-30T08:42:20.467Z,21.48
2018-06-30T08:43:20.506Z,21.63
2018-06-30T08:44:20.536Z,21.56
2018-06-30T08:45:20.572Z,21.37
2018-06-30T08:46:41.606Z,21.25
2018-06-30T08:47:20.635Z,21.35
2018-06-30T08:48:20.666Z,21.25
2018-06-30T08:49:20.659Z,21.25
2018-06-30T08:50:20.697Z,21.29
2018-06-30T08:51:20.741Z,21.37
2018-06-30T08:52:41.777Z,21.22
2018-06-30T08:53:20.824Z,21.15
2018-06-30T08:54:20.882Z,21.30
2018-06-30T08:55:20.907Z,21.56
2018-06-30T08:56:20.874Z,21.66
2018-06-30T08:57:20.896Z,21.45
2018-06-30T08:58:41.964Z,21.50
2018-06-30T08:59:20.972Z,21.32
2018-06-30T09:00:20.998Z,21.47
2018-06-30T09:01:21.017Z,21.77
2018-06-30T09:02:21.147Z,22.04
2018-06-30T09:03:21.069Z,22.06
2018-06-30T09:04:42.126Z,22.07
2018-06-30T09:05:21.147Z,22.14
2018-06-30T09:06:21.181Z,22.07
2018-06-30T09:07:21.186Z,21.91
2018-06-30T09:08:21.234Z,21.69
2018-06-30T09:09:21.245Z,21.70
2018-06-30T09:10:42.329Z,21.53
2018-06-30T09:11:21.324Z,21.53
2018-06-30T09:12:21.500Z,21.22
2018-06-30T09:13:21.362Z,21.14
2018-06-30T09:14:21.421Z,21.17
2018-06-30T09:15:21.433Z,21.25
2018-06-30T09:16:42.476Z,21.45
2018-06-30T09:17:21.480Z,21.44
2018-06-30T09:18:21.508Z,21.33
2018-06-30T09:19:21.570Z,21.59
2018-06-30T09:20:21.627Z,21.65
2018-06-30T09:21:21.598Z,21.74
2018-06-30T09:22:42.638Z,22.06
2018-06-30T09:23:21.734Z,22.30
2018-06-30T09:24:21.695Z,22.44
2018-06-30T09:25:21.707Z,22.71
2018-06-30T09:26:21.748Z,22.68
2018-06-30T09:27:21.784Z,22.41
2018-06-30T09:28:42.849Z,22.33
2018-06-30T09:29:21.836Z,22.40
2018-06-30T09:30:21.914Z,22.31
2018-06-30T09:31:21.883Z,22.26
2018-06-30T09:32:21.937Z,22.22
2018-06-30T09:33:21.949Z,22.04
2018-06-30T09:34:43.000Z,21.91
2018-06-30T09:35:22.003Z,22.01
2018-06-30T09:36:22.067Z,22.04
2018-06-30T09:37:22.082Z,22.10
2018-06-30T09:38:22.098Z,22.15
2018-06-30T09:39:22.133Z,22.04
2018-06-30T09:40:43.201Z,21.99
2018-06-30T09:41:22.207Z,22.08
2018-06-30T09:42:22.223Z,22.15
2018-06-30T09:43:22.249Z,22.10
2018-06-30T09:44:22.330Z,21.96
2018-06-30T09:45:22.299Z,21.99
2018-06-30T09:46:43.352Z,21.80
2018-06-30T09:47:22.351Z,21.75
2018-06-30T09:48:22.389Z,21.81
2018-06-30T09:49:22.414Z,21.77
2018-06-30T09:50:22.445Z,21.70
2018-06-30T09:51:22.493Z,21.70
2018-06-30T09:52:43.533Z,21.70
2018-06-30T09:53:22.548Z,21.83
2018-06-30T09:54:22.587Z,21.88
2018-06-30T09:55:22.596Z,21.81
2018-06-30T09:56:22.641Z,21.69
2018-06-30T09:57:22.651Z,21.58
2018-06-30T09:58:43.851Z,21.69
2018-06-30T09:59:22.712Z,21.77
2018-06-30T10:00:22.746Z,21.99
2018-06-30T10:01:22.765Z,22.10
2018-06-30T10:02:22.820Z,22.38
2018-06-30T10:03:22.821Z,22.62
2018-06-30T10:04:43.888Z,23.33
2018-06-30T10:05:22.905Z,24.07
2018-06-30T10:06:22.916Z,24.29
2018-06-30T10:07:22.951Z,24.48
2018-06-30T10:08:22.964Z,25.09
2018-06-30T10:09:22.993Z,24.63
2018-06-30T10:10:44.071Z,24.55
2018-06-30T10:11:23.052Z,24.82
2018-06-30T10:12:23.098Z,24.66
2018-06-30T10:13:23.111Z,24.51
2018-06-30T10:14:23.140Z,24.63
2018-06-30T10:15:23.178Z,24.36
2018-06-30T10:16:44.219Z,24.50
2018-06-30T10:17:23.237Z,25.06
2018-06-30T10:18:23.276Z,25.46
2018-06-30T10:19:26.423Z,25.63
2018-06-30T10:20:23.338Z,25.77
2018-06-30T10:21:23.377Z,26.23
2018-06-30T10:22:44.430Z,26.03
2018-06-30T10:23:23.433Z,25.76
2018-06-30T10:24:23.453Z,25.81
2018-06-30T10:25:23.485Z,26.15
2018-06-30T10:26:23.502Z,26.16
2018-06-30T10:27:23.557Z,26.45
2018-06-30T10:28:44.593Z,26.91
2018-06-30T10:29:23.592Z,26.85
2018-06-30T10:30:23.747Z,27.03
2018-06-30T10:31:23.694Z,27.11
2018-06-30T10:32:23.712Z,27.23
2018-06-30T10:33:23.720Z,27.33
2018-06-30T10:34:44.776Z,26.76
2018-06-30T10:35:23.770Z,26.10
2018-06-30T10:36:23.803Z,25.76
2018-06-30T10:37:23.883Z,25.52
2018-06-30T10:38:23.862Z,26.03
2018-06-30T10:39:24.037Z,26.45
2018-06-30T10:40:44.965Z,26.51
2018-06-30T10:41:24.000Z,27.22
2018-06-30T10:42:24.104Z,27.88
2018-06-30T10:43:24.031Z,28.55
2018-06-30T10:44:24.113Z,29.10
2018-06-30T10:45:24.142Z,29.27
2018-06-30T10:46:45.170Z,28.90
2018-06-30T10:47:24.166Z,28.27
2018-06-30T10:48:24.243Z,27.26
2018-06-30T10:49:24.211Z,26.46
2018-06-30T10:50:24.272Z,26.33
2018-06-30T10:51:24.270Z,27.18
2018-06-30T10:52:45.362Z,28.10
2018-06-30T10:53:24.348Z,28.67
2018-06-30T10:54:24.397Z,29.05
2018-06-30T10:55:24.425Z,29.53
2018-06-30T10:56:24.427Z,29.80
2018-06-30T10:57:24.466Z,30.58
2018-06-30T10:58:45.540Z,30.69
2018-06-30T10:59:24.521Z,31.08
2018-06-30T11:00:24.583Z,30.27
2018-06-30T11:01:24.597Z,29.42
2018-06-30T11:02:24.617Z,29.74
2018-06-30T11:03:24.666Z,28.80
2018-06-30T11:04:45.727Z,28.28
2018-06-30T11:05:24.736Z,28.10
2018-06-30T11:06:25.750Z,28.28
2018-06-30T11:07:24.790Z,27.91
2018-06-30T11:08:24.825Z,28.89
2018-06-30T11:09:24.851Z,29.73
2018-06-30T11:10:45.903Z,29.24
2018-06-30T11:11:24.915Z,28.27
2018-06-30T11:12:25.035Z,27.55
2018-06-30T11:13:24.968Z,26.92
2018-06-30T11:14:25.022Z,26.49
2018-06-30T11:15:25.045Z,26.01
2018-06-30T11:16:46.079Z,25.56
2018-06-30T11:17:25.144Z,25.36
2018-06-30T11:18:25.142Z,24.77
2018-06-30T11:19:25.163Z,24.38
2018-06-30T11:20:25.193Z,24.18
2018-06-30T11:21:25.247Z,24.06
2018-06-30T11:22:46.290Z,23.86
2018-06-30T11:23:25.288Z,23.81
2018-06-30T11:24:25.311Z,23.67
2018-06-30T11:25:25.351Z,23.59
2018-06-30T11:26:25.385Z,23.48
2018-06-30T11:27:25.414Z,23.37
2018-06-30T11:28:46.471Z,23.62
2018-06-30T11:29:25.499Z,23.84
2018-06-30T11:30:25.502Z,23.76
2018-06-30T11:31:25.570Z,24.00
2018-06-30T11:32:25.579Z,24.13
2018-06-30T11:33:25.625Z,24.18
2018-06-30T11:34:46.678Z,24.04
2018-06-30T11:35:25.715Z,24.18
2018-06-30T11:36:25.718Z,24.25
2018-06-30T11:37:26.687Z,24.16
2018-06-30T11:38:25.752Z,24.19
2018-06-30T11:39:25.832Z,24.21
2018-06-30T11:40:46.844Z,24.11
2018-06-30T11:41:25.850Z,24.10
2018-06-30T11:42:25.895Z,24.06
2018-06-30T11:43:25.922Z,24.09
2018-06-30T11:44:25.959Z,23.91
2018-06-30T11:45:25.991Z,23.89
2018-06-30T11:46:47.011Z,23.67
2018-06-30T11:47:26.061Z,23.59
2018-06-30T11:48:26.072Z,23.39
2018-06-30T11:49:26.108Z,23.34
2018-06-30T11:50:26.172Z,23.26
2018-06-30T11:51:26.166Z,23.25
2018-06-30T11:52:47.214Z,23.11
2018-06-30T11:53:26.213Z,23.14
2018-06-30T11:54:26.257Z,23.11
2018-06-30T11:55:26.279Z,23.17
2018-06-30T11:56:26.311Z,23.14
2018-06-30T11:57:27.188Z,23.17
2018-06-30T11:58:47.400Z,23.28
2018-06-30T11:59:26.482Z,23.29
2018-06-30T12:00:26.447Z,23.49
2018-06-30T12:01:26.466Z,23.39
2018-06-30T12:02:26.477Z,23.37
2018-06-30T12:03:26.539Z,23.34
2018-06-30T12:04:47.568Z,23.34
2018-06-30T12:05:26.571Z,23.40
2018-06-30T12:06:26.609Z,23.48
2018-06-30T12:07:26.647Z,23.37
2018-06-30T12:08:26.671Z,23.33
2018-06-30T12:09:26.732Z,23.14
2018-06-30T12:10:47.763Z,23.20
2018-06-30T12:11:26.782Z,23.18
2018-06-30T12:12:26.803Z,23.11
2018-06-30T12:13:26.833Z,23.17
2018-06-30T12:14:26.849Z,23.11
2018-06-30T12:15:26.953Z,23.08
2018-06-30T12:16:48.718Z,23.13
2018-06-30T12:17:26.949Z,23.16
2018-06-30T12:18:26.970Z,23.13
2018-06-30T12:19:27.050Z,23.16
2018-06-30T12:20:27.056Z,23.14
2018-06-30T12:21:27.091Z,23.17
2018-06-30T12:22:48.169Z,23.10
2018-06-30T12:23:27.134Z,23.10
2018-06-30T12:24:27.147Z,23.20
2018-06-30T12:25:27.192Z,23.18
2018-06-30T12:26:27.214Z,23.14
2018-06-30T12:27:27.246Z,23.10
2018-06-30T12:28:48.294Z,23.14
2018-06-30T12:29:27.318Z,23.02
2018-06-30T12:30:27.356Z,22.95
2018-06-30T12:31:27.368Z,22.98
2018-06-30T12:32:27.433Z,22.89
2018-06-30T12:33:27.423Z,22.99
2018-06-30T12:34:48.481Z,22.95
2018-06-30T12:35:27.485Z,23.13
2018-06-30T12:36:27.509Z,23.14
2018-06-30T12:37:27.632Z,23.26
2018-06-30T12:38:27.579Z,23.25
2018-06-30T12:39:27.596Z,23.25
2018-06-30T12:40:48.651Z,23.20
2018-06-30T12:41:27.674Z,23.25
2018-06-30T12:42:27.702Z,23.23
2018-06-30T12:43:27.731Z,23.25
2018-06-30T12:44:27.764Z,23.28
2018-06-30T12:45:27.780Z,23.36
2018-06-30T12:46:48.868Z,23.33
2018-06-30T12:47:27.844Z,23.40
2018-06-30T12:48:27.902Z,23.44
2018-06-30T12:49:27.911Z,23.55
2018-06-30T12:50:27.952Z,23.33
2018-06-30T12:51:27.967Z,23.26
2018-06-30T12:52:49.010Z,23.13
2018-06-30T12:53:28.025Z,23.26
2018-06-30T12:54:28.123Z,23.29